Time;durP1;ratioP1;P1;durP2;ratioP2;P2;SDS_P1;SDS_P2;PMS_P1;PMS_P2;Temp;Humidity;BMP_temperature;BMP_pressure;BME280_temperature;BME280_humidity;BME280_pressure;Samples;Min_cycle;Max_cycle;Signal;HPM_P1;HPM_P2
2022/09/05 00:00:08;;;;;;;8.38;7.57;;;;;;;;;;5100859;27;20114;-77
2022/09/05 00:02:36;;;;;;;8.50;7.82;;;;;;;;;;5105041;27;20019;-75
2022/09/05 00:05:04;;;;;;;8.57;7.78;;;;;;;;;;5108474;27;20120;-75
2022/09/05 00:07:33;;;;;;;8.60;7.90;;;;;;;;;;5120242;27;20449;-74
2022/09/05 00:10:07;;;;;;;9.05;8.15;;;;;;;;;;5120447;27;20050;-76
2022/09/05 00:12:34;;;;;;;9.05;8.20;;;;;;;;;;5116436;27;20026;-74
2022/09/05 00:15:11;;;;;;;9.82;8.82;;;;;;;;;;5117122;27;20042;-74
2022/09/05 00:17:37;;;;;;;8.77;8.07;;;;;;;;;;5109434;27;20024;-79
2022/09/05 00:20:28;;;;;;;8.40;7.78;;;;;;;;;;5117696;27;20514;-74
2022/09/05 00:23:00;;;;;;;9.18;8.27;;;;;;;;;;5089653;27;20027;-76
2022/09/05 00:25:36;;;;;;;9.38;7.90;;;;;;;;;;5121308;27;20900;-76
2022/09/05 00:28:05;;;;;;;9.30;8.48;;;;;;;;;;5118148;27;20022;-75
2022/09/05 00:30:44;;;;;;;9.05;8.23;;;;;;;;;;5118632;27;20506;-77
2022/09/05 00:33:26;;;;;;;8.73;8.02;;;;;;;;;;5110234;27;20323;-75
2022/09/05 00:36:11;;;;;;;8.88;8.02;;;;;;;;;;5107884;27;20095;-79
2022/09/05 00:38:38;;;;;;;8.65;7.90;;;;;;;;;;5120923;27;20025;-79
2022/09/05 00:41:07;;;;;;;8.10;7.38;;;;;;;;;;5121805;27;20150;-78
2022/09/05 00:43:40;;;;;;;8.65;7.90;;;;;;;;;;5116196;27;20067;-76
2022/09/05 00:46:09;;;;;;;9.52;8.57;;;;;;;;;;5115169;27;20041;-75
2022/09/05 00:48:37;;;;;;;9.75;8.85;;;;;;;;;;5107393;27;20074;-74
2022/09/05 00:51:02;;;;;;;9.55;8.75;;;;;;;;;;5117753;27;20050;-74
2022/09/05 00:53:36;;;;;;;9.77;8.98;;;;;;;;;;5107340;27;20062;-74
2022/09/05 00:56:20;;;;;;;9.00;7.90;;;;;;;;;;5116903;27;20447;-75
2022/09/05 00:58:52;;;;;;;9.55;8.68;;;;;;;;;;5115993;27;20019;-75
2022/09/05 01:01:36;;;;;;;9.02;8.32;;;;;;;;;;5118025;27;20160;-74
2022/09/05 01:04:14;;;;;;;9.70;8.88;;;;;;;;;;5114953;27;20031;-75
2022/09/05 01:07:03;;;;;;;9.18;8.48;;;;;;;;;;5110948;27;20145;-74
2022/09/05 01:09:37;;;;;;;9.73;8.73;;;;;;;;;;5103225;27;20063;-75
2022/09/05 01:12:10;;;;;;;9.50;8.60;;;;;;;;;;5107380;27;20031;-77
2022/09/05 01:14:39;;;;;;;9.25;8.50;;;;;;;;;;5116187;27;20027;-76
2022/09/05 01:17:15;;;;;;;9.02;8.23;;;;;;;;;;5097913;27;20118;-74
2022/09/05 01:19:44;;;;;;;11.65;9.45;;;;;;;;;;5118831;27;20015;-76
2022/09/05 01:22:09;;;;;;;10.82;9.93;;;;;;;;;;5118348;27;20019;-76
2022/09/05 01:24:34;;;;;;;10.43;9.32;;;;;;;;;;5110183;27;20035;-75
2022/09/05 01:27:18;;;;;;;10.80;9.80;;;;;;;;;;5115679;27;20027;-75
2022/09/05 01:29:52;;;;;;;11.00;9.57;;;;;;;;;;5116935;27;20037;-73
2022/09/05 01:32:23;;;;;;;12.15;10.18;;;;;;;;;;5118363;27;20023;-75
2022/09/05 01:34:55;;;;;;;10.95;9.82;;;;;;;;;;5114460;27;21209;-75
2022/09/05 01:37:31;;;;;;;11.50;10.15;;;;;;;;;;5114862;27;20031;-75
2022/09/05 01:40:12;;;;;;;11.40;10.30;;;;;;;;;;5091901;27;20081;-75
2022/09/05 01:42:44;;;;;;;11.50;10.50;;;;;;;;;;5114989;27;20035;-78
2022/09/05 01:45:15;;;;;;;11.32;10.23;;;;;;;;;;5116473;27;20043;-76
2022/09/05 01:47:50;;;;;;;10.73;9.88;;;;;;;;;;5110832;27;20468;-75
2022/09/05 01:50:25;;;;;;;11.55;10.52;;;;;;;;;;5105190;27;20050;-76
2022/09/05 01:53:05;;;;;;;11.43;10.35;;;;;;;;;;5099988;27;20110;-77
2022/09/05 01:55:53;;;;;;;8.95;8.10;;;;;;;;;;5116892;27;20035;-75
2022/09/05 01:58:24;;;;;;;9.10;8.30;;;;;;;;;;5117271;27;20043;-75
2022/09/05 02:01:01;;;;;;;10.93;8.50;;;;;;;;;;5120808;27;20346;-71
2022/09/05 02:03:33;;;;;;;9.90;8.55;;;;;;;;;;5119092;27;20024;-72
2022/09/05 02:06:21;;;;;;;8.75;8.02;;;;;;;;;;5119664;27;20034;-71
2022/09/05 02:08:54;;;;;;;8.50;7.70;;;;;;;;;;5108431;27;20470;-73
2022/09/05 02:11:37;;;;;;;9.75;8.80;;;;;;;;;;5118945;27;20461;-72
2022/09/05 02:14:08;;;;;;;10.43;9.32;;;;;;;;;;5119682;27;20105;-71
2022/09/05 02:16:42;;;;;;;12.07;9.25;;;;;;;;;;5120061;27;20039;-74
2022/09/05 02:19:26;;;;;;;10.38;9.32;;;;;;;;;;5113820;27;20348;-77
2022/09/05 02:22:07;;;;;;;10.70;9.07;;;;;;;;;;5106085;27;20392;-79
2022/09/05 02:24:33;;;;;;;10.40;9.40;;;;;;;;;;5109547;27;20058;-74
2022/09/05 02:26:59;;;;;;;9.70;8.98;;;;;;;;;;5112217;27;20098;-75
2022/09/05 02:29:28;;;;;;;9.75;8.90;;;;;;;;;;5115052;27;20106;-74
2022/09/05 02:31:53;;;;;;;;;;;;;;;;;;5112955;27;20104;-74
2022/09/05 02:34:54;;;;;;;9.37;8.57;;;;;;;;;;5104690;27;20327;-74
2022/09/05 02:37:23;;;;;;;9.23;8.52;;;;;;;;;;5076207;27;20462;-77
2022/09/05 02:39:56;;;;;;;10.00;9.00;;;;;;;;;;5119471;27;20034;-75
2022/09/05 02:42:24;;;;;;;11.15;9.27;;;;;;;;;;5114647;27;20495;-75
2022/09/05 02:44:54;;;;;;;10.77;9.88;;;;;;;;;;5120806;27;20035;-73
2022/09/05 02:47:38;;;;;;;11.77;10.60;;;;;;;;;;5117456;27;20028;-75
2022/09/05 02:50:07;;;;;;;11.63;10.52;;;;;;;;;;5100126;27;20429;-78
2022/09/05 02:52:34;;;;;;;15.98;11.77;;;;;;;;;;5113815;27;20045;-77
2022/09/05 02:55:00;;;;;;;13.77;12.60;;;;;;;;;;5116099;27;20027;-78
2022/09/05 02:57:47;;;;;;;14.50;13.10;;;;;;;;;;5115208;27;20030;-75
2022/09/05 03:00:25;;;;;;;15.50;14.00;;;;;;;;;;5114705;27;20079;-76
2022/09/05 03:03:03;;;;;;;15.60;14.35;;;;;;;;;;5113935;27;20023;-74
2022/09/05 03:05:34;;;;;;;16.40;15.07;;;;;;;;;;5116421;27;20544;-74
2022/09/05 03:08:15;;;;;;;15.07;13.70;;;;;;;;;;5113103;28;20032;-76
2022/09/05 03:10:59;;;;;;;15.38;13.98;;;;;;;;;;5113405;28;20043;-79
2022/09/05 03:13:40;;;;;;;15.23;13.82;;;;;;;;;;5106460;28;20019;-76
2022/09/05 03:16:05;;;;;;;14.25;12.60;;;;;;;;;;5115971;28;20088;-79
2022/09/05 03:18:49;;;;;;;11.70;10.70;;;;;;;;;;5115707;28;20356;-77
2022/09/05 03:21:15;;;;;;;12.32;11.07;;;;;;;;;;5114118;28;20028;-75
2022/09/05 03:23:46;;;;;;;11.88;10.77;;;;;;;;;;5114588;28;20077;-76
2022/09/05 03:26:36;;;;;;;12.25;11.10;;;;;;;;;;5116700;28;20073;-76
2022/09/05 03:29:11;;;;;;;12.13;11.13;;;;;;;;;;5116531;28;20019;-78
2022/09/05 03:31:36;;;;;;;11.77;10.57;;;;;;;;;;5116043;28;20109;-75
2022/09/05 03:34:20;;;;;;;11.60;10.65;;;;;;;;;;5116013;28;20170;-76
2022/09/05 03:36:46;;;;;;;11.40;10.30;;;;;;;;;;5112562;28;20453;-74
2022/09/05 03:39:41;;;;;;;11.45;10.45;;;;;;;;;;5116645;28;20036;-74
2022/09/05 03:42:25;;;;;;;11.18;9.80;;;;;;;;;;5112020;28;20443;-74
2022/09/05 03:45:03;;;;;;;13.30;12.10;;;;;;;;;;5116825;28;20874;-73
2022/09/05 03:47:28;;;;;;;14.38;13.07;;;;;;;;;;5115678;28;20466;-75
2022/09/05 03:50:12;;;;;;;15.35;13.95;;;;;;;;;;5117574;28;20145;-73
2022/09/05 03:52:52;;;;;;;16.08;14.50;;;;;;;;;;5115283;28;20446;-76
2022/09/05 03:55:23;;;;;;;14.90;13.45;;;;;;;;;;5118322;28;20445;-75
2022/09/05 03:57:48;;;;;;;14.80;13.40;;;;;;;;;;5117544;28;20437;-75
2022/09/05 04:00:19;;;;;;;14.80;13.30;;;;;;;;;;5116445;28;20031;-72
2022/09/05 04:02:57;;;;;;;14.82;13.43;;;;;;;;;;5100369;28;20023;-75
2022/09/05 04:05:24;;;;;;;15.32;13.98;;;;;;;;;;5113527;28;20546;-74
2022/09/05 04:07:50;;;;;;;16.15;14.65;;;;;;;;;;5112371;28;20027;-74
2022/09/05 04:10:24;;;;;;;15.23;13.68;;;;;;;;;;5109080;28;20052;-75
2022/09/05 04:12:58;;;;;;;13.27;12.15;;;;;;;;;;5114922;28;20117;-77
2022/09/05 04:15:42;;;;;;;12.82;11.57;;;;;;;;;;5118728;27;20030;-79
2022/09/05 04:18:17;;;;;;;15.50;14.10;;;;;;;;;;5119794;27;20038;-75
2022/09/05 04:21:01;;;;;;;14.30;12.90;;;;;;;;;;5108982;27;20104;-76
2022/09/05 04:23:35;;;;;;;14.02;12.73;;;;;;;;;;5114419;27;20034;-75
2022/09/05 04:26:05;;;;;;;14.27;12.98;;;;;;;;;;5118254;27;20083;-74
2022/09/05 04:28:34;;;;;;;13.88;12.57;;;;;;;;;;5122570;27;20034;-74
2022/09/05 04:31:09;;;;;;;13.02;11.90;;;;;;;;;;5118509;27;20105;-76
2022/09/05 04:33:58;;;;;;;12.77;11.57;;;;;;;;;;5122283;27;20019;-74
2022/09/05 04:36:29;;;;;;;11.88;10.80;;;;;;;;;;5121851;27;20019;-77
2022/09/05 04:39:12;;;;;;;12.52;11.43;;;;;;;;;;5117988;27;20030;-74
2022/09/05 04:41:41;;;;;;;12.82;11.73;;;;;;;;;;5121341;27;20050;-74
2022/09/05 04:44:17;;;;;;;11.35;10.45;;;;;;;;;;5120258;27;20023;-74
2022/09/05 04:46:46;;;;;;;11.90;10.90;;;;;;;;;;5118855;27;20050;-74
2022/09/05 04:49:26;;;;;;;13.35;11.07;;;;;;;;;;5114378;27;20030;-75
2022/09/05 04:51:58;;;;;;;11.68;10.57;;;;;;;;;;5121482;27;20437;-74
2022/09/05 04:54:26;;;;;;;11.68;10.68;;;;;;;;;;5102716;27;20023;-78
2022/09/05 04:56:55;;;;;;;11.80;10.80;;;;;;;;;;5107102;27;20405;-76
2022/09/05 04:59:33;;;;;;;11.47;10.53;;;;;;;;;;5103708;27;20059;-76
2022/09/05 05:02:01;;;;;;;11.60;10.57;;;;;;;;;;5102957;27;20617;-77
2022/09/05 05:04:27;;;;;;;11.68;10.57;;;;;;;;;;5103233;27;20041;-76
2022/09/05 05:06:55;;;;;;;11.75;10.73;;;;;;;;;;5106176;27;20035;-77
2022/09/05 05:09:27;;;;;;;10.70;9.73;;;;;;;;;;5099670;27;20034;-77
2022/09/05 05:11:55;;;;;;;11.70;10.60;;;;;;;;;;5099383;27;20038;-75
2022/09/05 05:14:21;;;;;;;11.52;10.43;;;;;;;;;;5108902;27;20027;-77
2022/09/05 05:17:06;;;;;;;11.95;10.75;;;;;;;;;;5109904;27;20362;-77
2022/09/05 05:19:43;;;;;;;11.27;10.18;;;;;;;;;;5072455;27;20039;-74
2022/09/05 05:22:12;;;;;;;11.57;10.48;;;;;;;;;;5115273;27;20015;-75
2022/09/05 05:24:45;;;;;;;11.68;10.77;;;;;;;;;;5098737;27;20020;-75
2022/09/05 05:27:29;;;;;;;10.82;10.00;;;;;;;;;;5099306;27;20035;-76
2022/09/05 05:30:03;;;;;;;11.43;10.35;;;;;;;;;;5096660;27;20023;-73
2022/09/05 05:32:31;;;;;;;11.25;10.32;;;;;;;;;;5102732;27;20064;-76
2022/09/05 05:35:00;;;;;;;11.50;10.40;;;;;;;;;;5102883;27;20084;-76
2022/09/05 05:37:25;;;;;;;12.95;11.75;;;;;;;;;;5103072;27;20037;-76
2022/09/05 05:39:59;;;;;;;13.15;12.05;;;;;;;;;;5110525;27;20101;-74
2022/09/05 05:42:24;;;;;;;15.23;13.82;;;;;;;;;;5114663;27;20035;-74
2022/09/05 05:44:54;;;;;;;16.20;14.70;;;;;;;;;;5117084;27;20030;-74
2022/09/05 05:47:22;;;;;;;17.13;15.55;;;;;;;;;;5113526;27;20031;-76
2022/09/05 05:49:53;;;;;;;13.50;12.20;;;;;;;;;;5118996;27;20054;-75
2022/09/05 05:52:37;;;;;;;13.88;12.65;;;;;;;;;;5117118;27;20031;-75
2022/09/05 05:55:02;;;;;;;14.63;13.32;;;;;;;;;;5117590;27;21194;-73
2022/09/05 05:57:33;;;;;;;14.85;13.52;;;;;;;;;;5116169;27;20050;-74
2022/09/05 05:59:59;;;;;;;15.38;13.82;;;;;;;;;;5118729;27;20068;-74
2022/09/05 06:02:36;;;;;;;13.68;12.48;;;;;;;;;;5120292;27;20024;-75
2022/09/05 06:05:14;;;;;;;13.07;11.98;;;;;;;;;;5109771;27;20501;-73
2022/09/05 06:07:58;;;;;;;11.95;10.95;;;;;;;;;;5109470;27;20976;-73
2022/09/05 06:10:34;;;;;;;12.52;11.43;;;;;;;;;;5116263;27;20026;-76
2022/09/05 06:13:01;;;;;;;11.13;10.02;;;;;;;;;;5115412;27;20027;-74
2022/09/05 06:15:40;;;;;;;11.50;10.40;;;;;;;;;;5116921;27;20027;-76
2022/09/05 06:18:08;;;;;;;11.63;10.63;;;;;;;;;;5115669;27;20430;-77
2022/09/05 06:20:54;;;;;;;11.90;10.75;;;;;;;;;;5113418;27;20080;-75
2022/09/05 06:23:38;;;;;;;11.77;10.68;;;;;;;;;;5118811;27;20031;-75
2022/09/05 06:26:22;;;;;;;11.18;10.27;;;;;;;;;;5118177;27;20035;-74
2022/09/05 06:29:06;;;;;;;10.23;9.20;;;;;;;;;;5116360;27;20023;-77
2022/09/05 06:31:49;;;;;;;10.77;9.65;;;;;;;;;;5118634;27;20347;-75
2022/09/05 06:34:15;;;;;;;11.20;10.10;;;;;;;;;;5117627;27;20031;-75
2022/09/05 06:36:43;;;;;;;11.75;10.65;;;;;;;;;;5118108;27;20081;-78
2022/09/05 06:39:15;;;;;;;10.55;9.55;;;;;;;;;;5116540;27;20023;-75
2022/09/05 06:41:43;;;;;;;15.00;13.50;;;;;;;;;;5114851;27;20023;-76
2022/09/05 06:44:28;;;;;;;13.43;12.20;;;;;;;;;;5118959;27;20023;-76
2022/09/05 06:46:55;;;;;;;9.80;8.90;;;;;;;;;;5118222;27;20473;-79
2022/09/05 06:49:22;;;;;;;14.52;13.32;;;;;;;;;;5114828;27;20019;-75
2022/09/05 06:51:50;;;;;;;19.48;18.10;;;;;;;;;;5116655;27;20094;-76
2022/09/05 06:54:21;;;;;;;16.70;15.25;;;;;;;;;;5116402;27;20035;-74
2022/09/05 06:56:52;;;;;;;13.20;12.20;;;;;;;;;;5119839;27;20019;-74
2022/09/05 06:59:24;;;;;;;14.38;13.10;;;;;;;;;;5116170;27;20084;-74
2022/09/05 07:02:03;;;;;;;11.95;11.05;;;;;;;;;;5114568;27;20040;-76
2022/09/05 07:04:37;;;;;;;10.32;9.43;;;;;;;;;;5114869;27;20023;-76
2022/09/05 07:07:06;;;;;;;10.18;8.98;;;;;;;;;;5113902;27;20051;-75
2022/09/05 07:09:43;;;;;;;8.43;7.72;;;;;;;;;;5116049;27;20056;-77
2022/09/05 07:12:25;;;;;;;8.45;7.75;;;;;;;;;;5113910;27;20023;-77
2022/09/05 07:15:09;;;;;;;9.30;7.45;;;;;;;;;;5117718;27;20233;-75
2022/09/05 07:17:47;;;;;;;7.28;6.68;;;;;;;;;;5115150;28;20414;-76
2022/09/05 07:20:31;;;;;;;10.85;9.77;;;;;;;;;;5116700;28;20062;-76
2022/09/05 07:22:59;;;;;;;11.60;10.50;;;;;;;;;;5117306;28;20028;-74
2022/09/05 07:25:29;;;;;;;10.90;9.90;;;;;;;;;;5113528;28;20114;-79
2022/09/05 07:27:56;;;;;;;9.48;8.68;;;;;;;;;;5115690;28;20084;-77
2022/09/05 07:30:22;;;;;;;8.85;8.05;;;;;;;;;;5114911;28;20033;-75
2022/09/05 07:32:50;;;;;;;8.15;7.40;;;;;;;;;;5113564;28;20119;-75
2022/09/05 07:35:30;;;;;;;8.38;7.57;;;;;;;;;;5114763;28;20031;-78
2022/09/05 07:38:08;;;;;;;8.88;8.18;;;;;;;;;;5103273;28;20111;-75
2022/09/05 07:40:35;;;;;;;10.70;9.75;;;;;;;;;;5114635;28;20046;-75
2022/09/05 07:43:08;;;;;;;10.10;9.20;;;;;;;;;;5112917;28;20035;-76
2022/09/05 07:45:35;;;;;;;10.00;9.10;;;;;;;;;;5114171;28;20468;-74
2022/09/05 07:48:07;;;;;;;9.38;8.57;;;;;;;;;;5116910;28;20446;-72
2022/09/05 07:50:43;;;;;;;8.95;8.10;;;;;;;;;;5121799;27;20027;-78
2022/09/05 07:53:09;;;;;;;9.77;8.77;;;;;;;;;;5103343;27;20075;-72
2022/09/05 07:55:35;;;;;;;9.60;8.68;;;;;;;;;;5122769;27;20039;-75
2022/09/05 07:58:02;;;;;;;10.10;9.07;;;;;;;;;;5116937;27;20080;-80
2022/09/05 08:00:28;;;;;;;8.80;7.85;;;;;;;;;;5115301;27;20109;-76
2022/09/05 08:02:54;;;;;;;8.75;7.95;;;;;;;;;;5120507;27;20015;-74
2022/09/05 08:05:21;;;;;;;9.57;8.57;;;;;;;;;;5106574;27;20108;-76
2022/09/05 08:07:57;;;;;;;8.98;8.07;;;;;;;;;;5103885;27;20023;-77
2022/09/05 08:10:30;;;;;;;8.90;8.10;;;;;;;;;;5118057;27;20057;-78
2022/09/05 08:13:03;;;;;;;9.07;8.25;;;;;;;;;;5120394;27;20072;-76
2022/09/05 08:15:29;;;;;;;8.10;7.40;;;;;;;;;;5119198;27;20058;-75
2022/09/05 08:18:00;;;;;;;9.50;7.78;;;;;;;;;;5119436;27;20518;-75
2022/09/05 08:20:26;;;;;;;8.70;7.82;;;;;;;;;;5121208;27;20027;-79
2022/09/05 08:22:57;;;;;;;10.00;8.27;;;;;;;;;;5115890;27;20438;-78
2022/09/05 08:25:34;;;;;;;7.95;6.97;;;;;;;;;;5116674;27;20088;-73
2022/09/05 08:28:02;;;;;;;7.90;7.18;;;;;;;;;;5118519;27;20135;-75
2022/09/05 08:30:33;;;;;;;8.15;7.35;;;;;;;;;;5117692;27;20019;-74
2022/09/05 08:32:59;;;;;;;8.23;7.47;;;;;;;;;;5120293;27;20034;-73
2022/09/05 08:35:44;;;;;;;13.10;7.50;;;;;;;;;;5120342;27;20092;-73
2022/09/05 08:38:12;;;;;;;8.52;7.05;;;;;;;;;;5119082;27;20039;-74
2022/09/05 08:40:42;;;;;;;11.88;6.72;;;;;;;;;;5120322;27;20582;-77
2022/09/05 08:43:07;;;;;;;7.65;6.95;;;;;;;;;;5118287;27;20065;-76
2022/09/05 08:45:36;;;;;;;7.45;6.75;;;;;;;;;;5115607;27;20036;-77
2022/09/05 08:48:22;;;;;;;7.07;6.43;;;;;;;;;;5117672;27;20019;-78
2022/09/05 08:51:03;;;;;;;7.20;6.60;;;;;;;;;;5119113;27;20015;-78
2022/09/05 08:53:29;;;;;;;6.68;6.07;;;;;;;;;;5104327;27;20027;-77
2022/09/05 08:55:54;;;;;;;7.50;6.10;;;;;;;;;;5120544;27;20026;-76
2022/09/05 08:58:25;;;;;;;7.13;6.05;;;;;;;;;;5118761;27;20032;-77
2022/09/05 09:00:54;;;;;;;9.02;8.13;;;;;;;;;;5119395;27;20030;-77
2022/09/05 09:03:42;;;;;;;11.83;8.90;;;;;;;;;;5119252;27;20134;-78
2022/09/05 09:06:30;;;;;;;6.93;6.32;;;;;;;;;;5118569;27;20031;-77
2022/09/05 09:09:15;;;;;;;6.25;5.75;;;;;;;;;;5105446;27;20047;-77
2022/09/05 09:12:00;;;;;;;6.47;5.93;;;;;;;;;;5119866;27;20031;-77
2022/09/05 09:14:32;;;;;;;6.07;5.57;;;;;;;;;;5119539;27;20034;-78
2022/09/05 09:17:18;;;;;;;7.18;5.97;;;;;;;;;;5116825;27;20454;-76
2022/09/05 09:19:46;;;;;;;5.68;5.18;;;;;;;;;;5116724;27;20035;-78
2022/09/05 09:22:12;;;;;;;6.60;5.50;;;;;;;;;;5120718;27;20012;-77
2022/09/05 09:24:46;;;;;;;7.78;5.40;;;;;;;;;;5100510;27;20034;-78
2022/09/05 09:27:30;;;;;;;6.78;5.35;;;;;;;;;;5120442;27;20039;-78
2022/09/05 09:30:00;;;;;;;5.53;5.03;;;;;;;;;;5118717;27;20052;-78
2022/09/05 09:32:27;;;;;;;5.25;4.82;;;;;;;;;;5118129;27;20464;-76
2022/09/05 09:34:55;;;;;;;4.97;4.45;;;;;;;;;;5117728;27;20030;-80
2022/09/05 09:37:39;;;;;;;4.97;4.43;;;;;;;;;;5121165;27;20316;-80
2022/09/05 09:40:05;;;;;;;4.40;4.00;;;;;;;;;;5117649;27;20394;-77
2022/09/05 09:42:50;;;;;;;4.28;3.95;;;;;;;;;;5117938;27;20122;-77
2022/09/05 09:45:27;;;;;;;4.28;3.97;;;;;;;;;;5120373;27;20031;-79
2022/09/05 09:47:59;;;;;;;7.05;5.07;;;;;;;;;;5119068;27;20023;-79
2022/09/05 09:50:43;;;;;;;4.93;4.38;;;;;;;;;;5116238;27;20472;-78
2022/09/05 09:53:28;;;;;;;4.20;3.80;;;;;;;;;;5115587;27;20024;-78
2022/09/05 09:56:06;;;;;;;7.53;6.47;;;;;;;;;;5116141;27;20358;-76
2022/09/05 09:58:35;;;;;;;4.45;4.15;;;;;;;;;;5115822;27;20030;-78
2022/09/05 10:01:16;;;;;;;5.43;4.05;;;;;;;;;;5112889;27;20027;-80
2022/09/05 10:04:00;;;;;;;4.85;4.20;;;;;;;;;;5113276;27;20027;-82
2022/09/05 10:06:44;;;;;;;4.82;3.97;;;;;;;;;;5112303;27;20036;-78
2022/09/05 10:09:18;;;;;;;4.18;3.88;;;;;;;;;;5117182;27;20051;-77
2022/09/05 10:12:02;;;;;;;4.20;3.90;;;;;;;;;;5117112;27;20118;-79
2022/09/05 10:14:30;;;;;;;4.93;4.53;;;;;;;;;;5116678;27;20107;-81
2022/09/05 10:17:16;;;;;;;6.63;6.00;;;;;;;;;;5114864;27;20042;-77
2022/09/05 10:20:00;;;;;;;4.60;4.20;;;;;;;;;;5115013;27;20088;-76
2022/09/05 10:22:25;;;;;;;4.55;4.15;;;;;;;;;;5114129;27;20493;-79
2022/09/05 10:25:09;;;;;;;4.00;3.70;;;;;;;;;;5119458;27;20114;-77
2022/09/05 10:27:53;;;;;;;5.25;3.28;;;;;;;;;;5116842;27;20023;-76
2022/09/05 10:30:18;;;;;;;3.85;3.55;;;;;;;;;;5113471;27;20031;-77
2022/09/05 10:33:03;;;;;;;4.78;3.85;;;;;;;;;;5114867;27;20049;-76
2022/09/05 10:35:35;;;;;;;6.30;3.90;;;;;;;;;;5116609;27;20023;-80
2022/09/05 10:38:07;;;;;;;3.92;3.33;;;;;;;;;;5114839;27;20019;-79
2022/09/05 10:40:33;;;;;;;3.17;2.97;;;;;;;;;;5117410;27;20027;-83
2022/09/05 10:43:08;;;;;;;4.00;3.70;;;;;;;;;;5114644;27;20135;-81
2022/09/05 10:45:52;;;;;;;4.18;3.83;;;;;;;;;;5113704;27;20041;-78
2022/09/05 10:48:18;;;;;;;3.88;3.15;;;;;;;;;;5116670;27;20106;-77
2022/09/05 10:50:46;;;;;;;4.00;3.70;;;;;;;;;;5115919;27;20512;-79
2022/09/05 10:53:27;;;;;;;3.97;3.67;;;;;;;;;;5115049;27;20396;-82
2022/09/05 10:55:55;;;;;;;3.80;3.50;;;;;;;;;;5112734;27;20023;-79
2022/09/05 10:58:23;;;;;;;3.40;3.20;;;;;;;;;;5116078;27;20035;-83
2022/09/05 11:00:55;;;;;;;4.10;3.80;;;;;;;;;;5113070;27;20404;-77
2022/09/05 11:03:21;;;;;;;4.80;3.72;;;;;;;;;;5118360;27;20035;-82
2022/09/05 11:05:51;;;;;;;3.58;3.28;;;;;;;;;;5116554;27;20108;-76
2022/09/05 11:08:25;;;;;;;4.22;3.88;;;;;;;;;;5114924;27;20027;-77
2022/09/05 11:10:59;;;;;;;3.83;3.53;;;;;;;;;;5111802;27;20043;-75
2022/09/05 11:13:25;;;;;;;4.00;3.40;;;;;;;;;;5119538;27;20026;-79
2022/09/05 11:15:50;;;;;;;3.47;3.17;;;;;;;;;;5117196;27;20099;-78
2022/09/05 11:18:35;;;;;;;12.05;10.88;;;;;;;;;;5116861;28;20019;-76
2022/09/05 11:21:11;;;;;;;6.05;5.25;;;;;;;;;;5111309;28;20036;-75
2022/09/05 11:23:39;;;;;;;6.55;4.70;;;;;;;;;;5114186;27;20038;-81
2022/09/05 11:26:22;;;;;;;3.17;2.97;;;;;;;;;;5118800;27;20028;-77
2022/09/05 11:28:56;;;;;;;3.25;3.03;;;;;;;;;;5118377;27;20023;-75
2022/09/05 11:31:26;;;;;;;13.65;11.30;;;;;;;;;;5120267;27;20018;-75
2022/09/05 11:34:10;;;;;;;14.48;9.70;;;;;;;;;;5120527;27;20104;-83
2022/09/05 11:36:42;;;;;;;7.13;6.25;;;;;;;;;;5123071;27;20031;-75
2022/09/05 11:39:31;;;;;;;4.30;3.90;;;;;;;;;;5123596;27;20408;-76
2022/09/05 11:42:15;;;;;;;3.90;3.60;;;;;;;;;;5121838;27;20493;-75
2022/09/05 11:45:00;;;;;;;5.05;3.42;;;;;;;;;;5107174;27;20034;-77
2022/09/05 11:47:44;;;;;;;5.05;3.28;;;;;;;;;;5102028;27;20039;-77
2022/09/05 11:50:18;;;;;;;20.85;17.17;;;;;;;;;;5102830;27;20039;-78
2022/09/05 11:53:03;;;;;;;5.43;4.93;;;;;;;;;;5108146;27;21393;-75
2022/09/05 11:55:37;;;;;;;3.33;3.00;;;;;;;;;;5106464;27;20019;-79
2022/09/05 11:58:17;;;;;;;3.90;3.53;;;;;;;;;;5106512;27;20162;-80
2022/09/05 12:00:46;;;;;;;3.30;3.00;;;;;;;;;;5106903;27;20080;-76
2022/09/05 12:03:23;;;;;;;3.83;3.42;;;;;;;;;;5103256;27;20047;-77
2022/09/05 12:05:51;;;;;;;4.53;4.13;;;;;;;;;;5103675;27;20114;-79
2022/09/05 12:08:35;;;;;;;4.22;2.92;;;;;;;;;;5106784;27;20031;-76
2022/09/05 12:11:00;;;;;;;4.72;3.97;;;;;;;;;;5092177;27;20372;-80
2022/09/05 12:13:52;;;;;;;4.70;3.55;;;;;;;;;;5083003;27;20026;-78
2022/09/05 12:16:19;;;;;;;4.30;3.40;;;;;;;;;;5063249;27;20062;-77
2022/09/05 12:19:04;;;;;;;4.97;3.63;;;;;;;;;;5112016;27;20057;-78
2022/09/05 12:21:39;;;;;;;7.90;7.10;;;;;;;;;;5106313;27;20052;-78
2022/09/05 12:24:15;;;;;;;6.32;5.72;;;;;;;;;;5101232;27;20026;-78
2022/09/05 12:26:45;;;;;;;3.85;3.25;;;;;;;;;;5098740;27;20040;-78
2022/09/05 12:29:19;;;;;;;3.90;3.60;;;;;;;;;;5102472;27;20071;-78
2022/09/05 12:31:46;;;;;;;3.28;3.05;;;;;;;;;;5105738;27;20129;-77
2022/09/05 12:34:17;;;;;;;3.53;3.17;;;;;;;;;;5107258;27;20019;-78
2022/09/05 12:36:49;;;;;;;4.72;3.40;;;;;;;;;;5108967;27;20029;-76
2022/09/05 12:39:27;;;;;;;3.75;3.45;;;;;;;;;;5108507;27;20019;-80
2022/09/05 12:42:13;;;;;;;5.10;4.45;;;;;;;;;;5106345;27;20048;-78
2022/09/05 12:44:41;;;;;;;3.58;3.20;;;;;;;;;;5106321;27;20026;-80
2022/09/05 12:47:11;;;;;;;4.53;3.33;;;;;;;;;;5105434;27;20025;-78
2022/09/05 12:49:42;;;;;;;3.50;3.20;;;;;;;;;;5099595;27;20259;-76
2022/09/05 12:52:16;;;;;;;4.38;3.55;;;;;;;;;;5098278;27;20023;-78
2022/09/05 12:54:46;;;;;;;3.33;3.13;;;;;;;;;;5101723;27;20106;-76
2022/09/05 12:57:37;;;;;;;4.05;3.22;;;;;;;;;;5111971;27;20100;-81
2022/09/05 13:00:08;;;;;;;3.30;3.00;;;;;;;;;;5103315;27;20031;-78
2022/09/05 13:02:34;;;;;;;3.88;3.50;;;;;;;;;;5111867;27;20171;-79
2022/09/05 13:05:02;;;;;;;6.70;6.10;;;;;;;;;;5095532;27;20134;-82
2022/09/05 13:07:32;;;;;;;4.78;4.30;;;;;;;;;;5117966;27;20521;-77
2022/09/05 13:09:59;;;;;;;4.28;3.15;;;;;;;;;;5106206;27;20031;-79
2022/09/05 13:12:28;;;;;;;3.60;3.10;;;;;;;;;;5101305;27;20057;-77
2022/09/05 13:14:56;;;;;;;3.03;2.72;;;;;;;;;;5112307;27;20166;-77
2022/09/05 13:17:26;;;;;;;5.53;3.67;;;;;;;;;;5113024;27;20026;-76
2022/09/05 13:19:52;;;;;;;3.65;2.88;;;;;;;;;;5116600;27;20031;-79
2022/09/05 13:22:19;;;;;;;3.58;3.13;;;;;;;;;;5099227;27;20381;-78
2022/09/05 13:24:48;;;;;;;3.67;3.00;;;;;;;;;;5106431;27;20452;-77
2022/09/05 13:27:13;;;;;;;4.00;3.30;;;;;;;;;;5116220;27;20349;-77
2022/09/05 13:29:52;;;;;;;3.15;2.95;;;;;;;;;;5103207;27;20111;-75
2022/09/05 13:32:24;;;;;;;3.38;3.17;;;;;;;;;;5102806;27;20031;-78
2022/09/05 13:34:55;;;;;;;3.40;3.20;;;;;;;;;;5106176;27;20027;-78
2022/09/05 13:37:57;;;;;;;4.18;3.42;;;;;;;;;;5116403;27;20080;-74
2022/09/05 13:40:27;;;;;;;4.03;3.17;;;;;;;;;;5043919;28;20034;-77
2022/09/05 13:43:05;;;;;;;5.28;3.03;;;;;;;;;;5045970;28;20044;-75
2022/09/05 13:45:33;;;;;;;2.90;2.70;;;;;;;;;;5055162;28;20041;-77
2022/09/05 13:48:18;;;;;;;5.50;3.55;;;;;;;;;;5054765;28;20070;-75
2022/09/05 13:50:53;;;;;;;5.07;4.68;;;;;;;;;;5057455;28;20071;-75
2022/09/05 13:53:35;;;;;;;3.67;2.90;;;;;;;;;;5051122;28;20037;-76
2022/09/05 13:56:27;;;;;;;5.85;3.15;;;;;;;;;;5046141;28;20455;-75
2022/09/05 13:59:01;;;;;;;3.70;3.28;;;;;;;;;;5048380;28;20048;-75
2022/09/05 14:01:44;;;;;;;8.63;4.55;;;;;;;;;;5041125;28;20116;-75
2022/09/05 14:04:32;;;;;;;4.32;3.92;;;;;;;;;;5046384;28;21233;-75
2022/09/05 14:06:58;;;;;;;4.50;4.10;;;;;;;;;;5047438;28;20048;-76
2022/09/05 14:09:32;;;;;;;6.95;6.35;;;;;;;;;;5054231;28;20039;-74
2022/09/05 14:12:30;;;;;;;5.05;4.65;;;;;;;;;;5055810;28;20056;-75
2022/09/05 14:14:58;;;;;;;3.72;3.40;;;;;;;;;;4992843;28;20434;-76
2022/09/05 14:17:46;;;;;;;2.97;2.70;;;;;;;;;;5002954;28;20036;-75
2022/09/05 14:23:04;;;;;;;3.30;2.97;;;;;;;;;;5004695;28;20442;-74
2022/09/05 14:25:35;;;;;;;3.25;2.95;;;;;;;;;;5001931;28;20159;-74
2022/09/05 14:28:02;;;;;;;4.70;2.72;;;;;;;;;;5005444;28;20041;-75
2022/09/05 14:30:41;;;;;;;3.80;2.80;;;;;;;;;;5010003;28;20137;-76
2022/09/05 14:33:29;;;;;;;2.67;2.47;;;;;;;;;;5007382;28;20192;-75
2022/09/05 14:36:13;;;;;;;3.80;3.40;;;;;;;;;;5005165;28;20494;-76
2022/09/05 14:38:45;;;;;;;3.67;3.38;;;;;;;;;;5006863;28;20120;-76
2022/09/05 14:41:13;;;;;;;3.60;3.30;;;;;;;;;;5013067;28;20034;-75
2022/09/05 14:44:04;;;;;;;4.27;3.40;;;;;;;;;;5009270;28;20052;-74
2022/09/05 14:46:32;;;;;;;4.43;3.17;;;;;;;;;;5004940;28;20049;-75
2022/09/05 14:49:16;;;;;;;3.87;3.10;;;;;;;;;;5004815;28;20444;-75
2022/09/05 14:51:45;;;;;;;3.53;3.22;;;;;;;;;;5109533;27;20046;-76
2022/09/05 14:54:36;;;;;;;2.92;2.63;;;;;;;;;;5100668;27;21064;-75
2022/09/05 14:57:06;;;;;;;3.65;3.35;;;;;;;;;;5097255;27;20031;-78
2022/09/05 14:59:39;;;;;;;3.22;2.92;;;;;;;;;;5096209;27;20027;-75
2022/09/05 15:02:11;;;;;;;2.92;2.72;;;;;;;;;;5101251;27;20030;-76
2022/09/05 15:04:41;;;;;;;3.30;3.00;;;;;;;;;;5100175;27;20135;-75
2022/09/05 15:07:12;;;;;;;3.13;2.80;;;;;;;;;;5110655;27;20130;-76
2022/09/05 15:09:37;;;;;;;3.65;3.00;;;;;;;;;;5100604;27;20024;-77
2022/09/05 15:12:12;;;;;;;3.60;3.30;;;;;;;;;;5097031;27;20031;-77
2022/09/05 15:14:40;;;;;;;3.42;2.75;;;;;;;;;;5117095;27;20039;-77
2022/09/05 15:17:05;;;;;;;3.47;3.17;;;;;;;;;;5115508;27;20027;-76